Dernières infos :  

21/06/2017  Mise à jour des tableaux d'analyses décadaires : rubrique climatologie
06/06/2017 Mise en ligne de la synthèse climatologique de Mai 2017 : 
CLIQUEZ ICI   

Si l'entête du tableau ne s'affiche pas correctement, => actualisez la page (F5 avec Internet Explorer, Chrome...).
Utilisez l'ascenseur sur la droite des lignes du tableau pour faire défiler verticalement les jours du mois.

TABLEAU DES DONNEES COMPLETES NOAA de JUIN 2012

DATE TEMPERATURE
sous abri
TEMPARATURE 
au sol
VENT  et  Indice de Refroidissement Eolien  PRECIPITATIONS (en mm/m2)
et Intensité
PRESSION ATMOSPHERIQUE (en hPa) HUMIDITE de l'AIR RADIATIONS SOLAIRES (en W/m2)
Mini Moy. Maxi Mini Moy. Maxi Moyen Rafale I.R.E.
Minii
Précip. jour Cumul mois Intensité Maxi Mini Moy. Maxi Mini Moy. Maxi Pic maxi du jour Total jour
01/06/2012 14.8° 20.6° 26° 12.8° 23.6° 33.9° 7.1km/h dir N 25.7km/h dir N 14.8° 0 0   1015.2 1017.6 1019.1 44% 67% 89% 932 96 637
02/06/2012 12.2° 21.2° 30.2° 10° 23.4° 37.2° 3.1km/h dir OSO 29km/h dir S 12.2° 1.6 1.6 24mm/h 1009.6 1012.8 1015.4 44% 70.9% 95% 976 88 678
03/06/2012 14.4° 17° 20.5° 13.9° 16.4° 20° 5.3km/h dir S 35.4km/h dir S 14.5° 57 58.6 182.8mm/h 1009 1012 1014.6 63% 87.5% 95% 209 10 648
04/06/2012 13° 15.7° 20.2° 11.7° 17° 29.4° 3.9km/h dir NO 22.5km/h dir NO 12.8° 2.6 61.2 8.8mm/h 1013.5 1015.4 1017.9 53% 80% 96% 1288 51 163
05/06/2012 10.8° 15.5° 21° 10° 18° 28.3° 3.5km/h dir N 29km/h dir NNO 10.8° 1.2 62.4 24.2mm/h 1012.8 1016.8 1018.9 49% 75.8% 94% 1049 81 145
06/06/2012 13.7° 17.6° 24.3° 12.8° 18.2° 32.8° 3.4km/h dir S 20.9km/h dir S 13.7° 2.2 64.6 2.4mm/h 1009.4 1011.1 1012.9 55% 78.3% 91% 1048 43 337
07/06/2012 16.9° 20.6° 27.1° 16.1° 21.2° 31.7° 10.1km/h dir S 66km/h dir S 16.9° 6.6 71.2 33.8mm/h 1001.6 1005.8 1009.6 50% 76.7% 92% 1127 65 682
08/06/2012 15.6° 17.8° 22.1° 15° 18.7° 30° 3.5km/h dir SE 20.9km/h dir S 15.6° 9.4 80.6 7.8mm/h 1006.7 1011.8 1015.8 56% 81.6% 95% 1146 50 217
09/06/2012 12.3° 16.2° 19.7° 10.6° 18.4° 28.9° 4.7km/h dir NO 19.3km/h dir NO 12.3° 0 80.6   1015.2 1016.9 1018.6 51% 68.7% 89% 1213 77 004
10/06/2012 11.6° 15.2° 19° 10° 15.9° 27.8° 3.1km/h dir SSO 22.5km/h dir SE 11.6° 5.2 85.8 7.4mm/h 1006 1011.1 1015.6 51% 80.2% 94% 803 44 019
11/06/2012 13.3° 16.3° 21.7° 12.2° 17.6° 32.2° 4km/h dir SSO 22.5km/h dir O 13.3° 11 96.8 87.2mm/h 1003.3 1006.4 1009.1 52% 82.3% 94% 1225 60 089
12/06/2012 12.6° 14.8° 18.9° 12.2° 15.4° 28.3° 4.3km/h dir S 27.4km/h dir O 12.6° 3.2 100 10.4mm/h 1003.9 1007.4 1013.2 62% 84.5% 94% 1394 43 664
13/06/2012 11.7° 14.1° 19.8° 10° 14.9° 27.2° 2.3km/h dir SSO 27.4km/h dir O 11.6° 14.6 114.6 98.4mm/h 1013.2 1016.5 1018.5 56% 85% 94% 958 44 048
14/06/2012 11° 18.2° 25.2° 9.4° 21° 31.7° 3.5km/h dir S 24.1km/h dir SSE 11.1° 0 114.6   1014.2 1016.5 1018.8 32% 66.1% 95% 1018 99 154
15/06/2012 17.3° 22.3° 27.7° 16.7° 23.9° 33.3° 12.6km/h dir S 41.8km/h dir SSO 16.9° 0 114.6   1014.7 1015.9 1017.2 36% 51.3% 68% 1230 87 552
16/06/2012 18.1° 23.4° 29.7° 16.7° 25° 35° 11.3km/h dir S 46.7km/h dir S 18.2° 0 114.6   1015 1016.9 1020.7 27% 46.6% 78% 998 97 014
17/06/2012 16.2° 20.7° 25.9° 15.6° 23.8° 34.4° 6.8km/h dir N 22.5km/h dir NNO 16.2° 0 114.6   1014.9 1019.4 1022.7 56% 70.8% 89% 911 96 373
18/06/2012 17° 23.3° 29.3° 14.4° 25° 37.2° 7.1km/h dir N 30.6km/h dir NO 17.1° 0 114.6   1012.7 1015.5 1017.4 37% 62.1% 92% 1144 80 206
19/06/2012 16.3° 20.5° 24.7° 15° 21.1° 28.9° 2.3km/h dir NNO 16.1km/h dir SSE 16.3° 0.2 114.8   1012.7 1015.2 1017.6 68% 78.6% 88% 693 38 843
20/06/2012 17.7° 20.9° 26.3° 16.7° 22.2° 35° 3.7km/h dir SSE 33.8km/h dir SSE 17.7° 6 120.8 5.8mm/h 1011.5 1013.6 1015.1 57% 80.3% 94% 1148 51 373
21/06/2012 15.4° 20.9° 30.7° 13.9° 22.4° 37.8° 3.7km/h dir S 78.9km/h dir OSO 15.4° 16.4 137.2 295.4mm/h 1007.8 1010.9 1017.5 44% 81.7% 97% 1236 64 729
22/06/2012 11.2° 17.8° 23° 9.4° 20.7° 31.1° 4.5km/h dir NO 22.5km/h dir NO 11.2° 0 137.2   1017.6 1021.7 1023.2 43% 65.1% 91% 962 99 435
23/06/2012 11.4° 18.7° 24.8° 10° 21.7° 32.8° 3.7km/h dir N 30.6km/h dir NO 11.4° 0 137.2   1021.7 1023.5 1025.1 40% 66.6% 94% 960 99 706
24/06/2012 11.4° 20.4° 28.1° 9.4° 22.4° 35° 2.3km/h dir SSO 17.7km/h dir SSO 11.4° 0 137.2   1017.5 1020 1022 38% 67.6% 94% 1058 87 329
25/06/2012 17.2° 20.3° 23.8° 16.7° 21.1° 32.2° 2.6km/h dir OSO 16.1km/h dir NNO 17.2° 2.6 139.8 3.4mm/h 1017.6 1019.4 1020.8 63% 80% 93% 914 44 393
26/06/2012 17.4° 20.8° 26.4° 16.7° 22.1° 36.1° 2.6km/h dir NO 19.3km/h dir O 17.4° 1.4 141.2 11mm/h 1020.3 1021.2 1022 63% 83.1% 94% 1194 47 079
27/06/2012 17.8° 22.9° 29.1° 16.7° 25.6° 37.2° 3.7km/h dir N 16.1km/h dir N 17.8° 0 141.2   1012.9 1018.6 1022 56% 79.2% 97% 1139 85 186
28/06/2012 19.2° 25.9° 32.7° 17.2° 27.2° 38.3° 8.5km/h dir S 38.6km/h dir SSO 19.2° 0 141.2   1006.9 1010 1012.9 36% 65.3% 95% 1063 84 649
29/06/2012 22.3° 26.9° 32.9° 21.1° 28.5° 37.8° 10.5km/h dir S 48.3km/h dir SO 22.3° 0 141.2   1006.8 1008.5 1011.6 30% 50.4% 78% 893 92 161
30/06/2012 17.1° 24.3° 31.8° 15° 26.4° 37.8° 4.2km/h dir SSO 38.6km/h dir NNO 17.1° 0 141.2   1007 1010.6 1014.1 41% 68.7% 94% 870 87 753

RETOUR ACCUEIL


Date de création : 08/02/2014 : 08:02
Dernière modification : 09/02/2015 : 18:21
Catégorie : ARCHIVES 2002 à 2016 - ANNEES 2010 à 2019 - ANNEE 2012 - JUIN 2012
Page lue 1646 fois


Réactions à cet article

Personne n'a encore laissé de commentaire.
Soyez donc le premier !